Time;durP1;ratioP1;P1;durP2;ratioP2;P2;SDS_P1;SDS_P2;PMS_P1;PMS_P2;Temp;Humidity;BMP_temperature;BMP_pressure;BME280_temperature;BME280_humidity;BME280_pressure;Samples;Min_cycle;Max_cycle;Signal;HPM_P1;HPM_P2
2022/01/25 00:08:54;;;;;;;39.28;25.05;;;;;;;1.06;89.27;103277.25;5032681;28;20523;-74
2022/01/25 00:25:44;;;;;;;40.13;26.27;;;;;;;1.12;89.47;103278.16;5025531;28;20099;-73
2022/01/25 00:28:19;;;;;;;42.03;26.00;;;;;;;1.16;89.56;103287.91;5022539;28;20169;-73
2022/01/25 00:33:26;;;;;;;48.45;27.85;;;;;;;1.18;89.65;103285.25;5018003;28;20034;-73
2022/01/25 00:35:51;;;;;;;43.65;25.52;;;;;;;1.17;89.87;103289.69;5002887;28;20386;-74
2022/01/25 00:38:16;;;;;;;44.63;27.55;;;;;;;1.18;90.07;103286.13;5016220;28;20075;-74
2022/01/25 00:40:42;;;;;;;42.13;25.35;;;;;;;1.19;90.07;103285.25;5017204;28;20036;-74
2022/01/25 00:43:07;;;;;;;41.10;23.45;;;;;;;1.20;90.09;103288.78;5007661;28;20112;-74
2022/01/25 00:45:32;;;;;;;42.28;24.98;;;;;;;1.21;90.11;103279.97;5030598;28;20098;-74
2022/01/25 00:47:58;;;;;;;46.15;26.45;;;;;;;1.26;90.13;103285.28;5030784;28;20075;-74
2022/01/25 00:50:23;;;;;;;45.95;27.52;;;;;;;1.28;90.10;103275.59;5027214;28;20056;-74
2022/01/25 00:55:15;;;;;;;43.10;25.67;;;;;;;1.29;90.00;103269.41;5028097;28;20327;-74
2022/01/25 00:57:40;;;;;;;40.95;26.15;;;;;;;1.32;90.23;103280.91;5031043;28;20533;-74
2022/01/25 01:00:08;;;;;;;42.65;27.70;;;;;;;1.34;90.38;103270.31;5026696;28;20033;-74
2022/01/25 01:02:34;;;;;;;43.92;25.88;;;;;;;1.31;90.15;103275.59;5037361;28;20051;-74
2022/01/25 01:04:59;;;;;;;43.45;29.13;;;;;;;1.28;90.26;103271.16;5029524;28;20093;-75
2022/01/25 01:07:25;;;;;;;42.75;26.70;;;;;;;1.32;90.34;103269.44;5025630;28;20026;-74
2022/01/25 01:09:52;;;;;;;47.83;27.98;;;;;;;1.36;90.69;103272.09;5024889;28;20021;-74
2022/01/25 01:12:46;;;;;;;43.30;26.83;;;;;;;1.37;90.64;103271.19;5022972;28;20495;-74
2022/01/25 01:15:23;;;;;;;43.67;28.20;;;;;;;1.39;90.58;103277.41;5039162;28;20079;-74
2022/01/25 01:29:02;;;;;;;40.10;24.80;;;;;;;1.44;90.28;103277.44;5026465;28;20466;-74
2022/01/25 01:37:35;;;;;;;46.30;28.05;;;;;;;1.49;90.73;103285.38;4961570;28;20034;-74
2022/01/25 01:40:13;;;;;;;42.13;25.38;;;;;;;1.50;90.82;103289.81;4952234;28;20139;-74
2022/01/25 01:43:00;;;;;;;49.55;27.70;;;;;;;1.51;90.96;103284.53;4953002;28;20395;-74
2022/01/25 01:48:06;;;;;;;45.95;27.75;;;;;;;1.57;91.14;103281.00;4956927;28;20042;-74
2022/01/25 01:50:34;;;;;;;56.65;32.45;;;;;;;1.54;90.83;103284.53;4950771;28;20027;-74
2022/01/25 01:53:02;;;;;;;47.60;27.48;;;;;;;1.56;91.18;103281.88;4952725;28;20480;-74
2022/01/25 01:55:28;;;;;;;45.13;27.15;;;;;;;1.57;91.36;103286.31;4953475;28;20037;-74
2022/01/25 01:57:54;;;;;;;46.10;27.40;;;;;;;1.57;91.01;103281.00;4964691;28;20851;-75
2022/01/25 02:00:23;;;;;;;42.47;26.90;;;;;;;1.57;90.91;103286.31;4937929;28;20037;-76
2022/01/25 02:02:49;;;;;;;41.80;24.50;;;;;;;1.60;90.94;103288.97;4933600;29;20028;-76
2022/01/25 02:05:15;;;;;;;42.33;26.30;;;;;;;1.59;91.02;103294.28;4951701;28;20564;-76
2022/01/25 02:07:40;;;;;;;44.00;27.02;;;;;;;1.60;91.35;103283.66;5029223;28;20120;-77
2022/01/25 02:10:06;;;;;;;44.50;26.50;;;;;;;1.65;91.23;103281.03;5030350;28;20109;-77
2022/01/25 02:12:33;;;;;;;44.72;27.60;;;;;;;1.67;91.27;103276.59;5028804;28;20117;-77
2022/01/25 02:14:58;;;;;;;43.25;28.35;;;;;;;1.69;91.16;103277.50;5030274;28;20029;-77
2022/01/25 02:22:25;;;;;;;45.08;26.77;;;;;;;1.70;91.20;103277.53;5029790;28;20562;-77
2022/01/25 02:23:00;;;;;;;45.10;29.20;;;;;;;1.71;90.75;103281.03;5031113;28;20175;-77
2022/01/25 02:25:26;;;;;;;47.72;28.35;;;;;;;1.70;91.10;103279.28;5033425;28;20029;-78
2022/01/25 02:27:51;;;;;;;43.47;26.88;;;;;;;1.75;90.98;103267.78;5027543;28;20032;-77
2022/01/25 02:30:18;;;;;;;47.80;29.70;;;;;;;1.77;90.81;103269.56;5023470;28;20628;-77
2022/01/25 02:32:43;;;;;;;49.90;29.58;;;;;;;1.79;90.87;103260.75;5030907;28;20025;-77
2022/01/25 02:35:10;;;;;;;45.28;28.30;;;;;;;1.81;90.89;103266.94;5023727;28;20577;-78
2022/01/25 02:37:35;;;;;;;45.38;29.95;;;;;;;1.82;91.04;103257.22;5031758;28;20438;-77
2022/01/25 02:40:02;;;;;;;46.65;30.52;;;;;;;1.84;90.95;103266.06;5034376;28;20119;-77
2022/01/25 02:42:27;;;;;;;43.50;27.10;;;;;;;1.86;91.02;103251.03;5018748;28;20077;-77
2022/01/25 02:44:53;;;;;;;42.25;27.55;;;;;;;1.85;90.42;103254.59;5028920;28;20473;-77
2022/01/25 02:50:04;;;;;;;46.97;30.65;;;;;;;1.81;90.74;103256.31;5027520;28;20228;-77
2022/01/25 02:52:30;;;;;;;44.95;27.33;;;;;;;1.81;90.37;103251.03;5029932;28;20056;-77
2022/01/25 02:54:55;;;;;;;44.40;26.40;;;;;;;1.81;90.99;103255.44;5048091;28;20404;-77
2022/01/25 02:57:21;;;;;;;44.92;29.08;;;;;;;1.81;90.76;103250.16;5028484;28;20052;-77
2022/01/25 02:59:47;;;;;;;44.20;27.08;;;;;;;1.82;91.34;103251.94;5034978;28;20478;-77
2022/01/25 03:02:12;;;;;;;48.58;29.08;;;;;;;1.81;90.94;103245.72;5027797;28;20034;-77
2022/01/25 03:04:37;;;;;;;45.88;28.63;;;;;;;1.82;90.65;103243.97;5029767;28;20176;-77
2022/01/25 03:07:03;;;;;;;42.28;29.00;;;;;;;1.80;90.89;103241.31;5031802;28;20025;-77
2022/01/25 03:09:29;;;;;;;40.60;25.52;;;;;;;1.81;90.75;103244.84;5032418;28;20029;-77
2022/01/25 03:11:56;;;;;;;45.95;26.90;;;;;;;1.82;90.99;103246.63;5027998;28;20453;-77
2022/01/25 03:14:26;;;;;;;46.13;27.15;;;;;;;1.82;90.97;103247.50;5032966;28;20033;-77
2022/01/25 03:22:05;;;;;;;46.65;27.88;;;;;;;1.83;91.26;103229.81;5028276;28;20033;-77
2022/01/25 03:24:31;;;;;;;44.75;28.08;;;;;;;1.86;91.03;103229.81;5028067;28;20018;-77
2022/01/25 03:26:56;;;;;;;49.65;27.13;;;;;;;1.85;90.93;103236.03;5027236;28;20033;-77
2022/01/25 03:29:21;;;;;;;43.50;26.67;;;;;;;1.85;91.03;103236.03;5027918;28;20284;-77
2022/01/25 03:31:47;;;;;;;42.47;26.42;;;;;;;1.86;90.78;103240.41;5034389;28;20941;-77
2022/01/25 03:34:12;;;;;;;43.85;27.85;;;;;;;1.84;91.22;103240.41;5031808;28;20042;-77
2022/01/25 03:36:37;;;;;;;47.97;28.77;;;;;;;1.83;91.12;103232.47;5031646;28;20104;-77
2022/01/25 03:39:05;;;;;;;41.10;26.60;;;;;;;1.81;91.59;103223.63;5031105;28;20409;-77
2022/01/25 03:41:31;;;;;;;45.78;28.55;;;;;;;1.83;91.50;103229.81;5027135;28;20437;-77
2022/01/25 03:43:57;;;;;;;48.78;29.48;;;;;;;1.85;91.32;103236.91;5033059;28;20016;-77
2022/01/25 03:47:13;;;;;;;45.75;29.90;;;;;;;1.88;91.33;103226.28;5030748;28;20551;-77
2022/01/25 03:51:54;;;;;;;53.72;31.08;;;;;;;1.89;90.75;103225.41;5030228;28;20118;-77
2022/01/25 03:54:19;;;;;;;51.35;31.55;;;;;;;1.90;91.23;103228.94;5027608;28;20068;-77
2022/01/25 03:56:45;;;;;;;45.45;28.35;;;;;;;1.91;91.43;103225.41;5032457;28;20017;-77
2022/01/25 03:59:11;;;;;;;48.67;29.48;;;;;;;1.94;91.65;103238.69;5028437;28;20056;-77
2022/01/25 04:01:36;;;;;;;47.40;30.90;;;;;;;1.90;91.50;103232.50;5033137;28;20078;-77
2022/01/25 04:04:07;;;;;;;51.00;30.10;;;;;;;1.92;91.66;103237.81;5027404;28;20501;-77
2022/01/25 04:06:34;;;;;;;44.42;28.30;;;;;;;1.95;91.50;103239.53;5033543;28;20024;-77
2022/01/25 04:09:02;;;;;;;46.13;28.65;;;;;;;1.92;91.76;103235.16;5027001;28;20389;-77
2022/01/25 04:11:28;;;;;;;46.45;28.25;;;;;;;1.95;91.52;103237.81;5026562;28;20214;-77
2022/01/25 04:13:56;;;;;;;46.55;27.98;;;;;;;1.98;91.18;103239.59;5029097;28;20136;-77
2022/01/25 04:16:27;;;;;;;47.08;28.27;;;;;;;1.95;91.15;103240.47;5027731;28;20362;-77
2022/01/25 04:24:43;;;;;;;39.90;27.25;;;;;;;1.91;91.64;103233.38;5028817;28;20079;-77
2022/01/25 04:26:57;;;;;;;45.85;29.25;;;;;;;1.95;91.50;103237.81;5034339;28;20508;-77
2022/01/25 04:29:24;;;;;;;44.25;27.33;;;;;;;1.96;91.59;103231.59;5027423;28;20067;-77
2022/01/25 04:31:49;;;;;;;46.40;26.83;;;;;;;1.95;91.39;103229.84;5037107;28;20052;-77
2022/01/25 04:50:23;;;;;;;39.97;25.02;;;;;;;2.05;91.80;103223.66;5028446;28;20040;-77
2022/01/25 04:52:58;;;;;;;41.88;26.30;;;;;;;2.04;91.81;103221.88;5021592;28;20033;-77
2022/01/25 04:55:32;;;;;;;43.88;28.00;;;;;;;2.04;91.33;103224.53;5029130;28;20035;-77
2022/01/25 04:58:05;;;;;;;43.03;26.45;;;;;;;2.04;91.18;103221.88;5032751;28;20457;-77
2022/01/25 05:00:32;;;;;;;47.42;31.85;;;;;;;2.03;91.69;103216.59;5021232;28;20021;-77
2022/01/25 05:03:08;;;;;;;45.33;28.40;;;;;;;2.02;91.69;103209.50;5032476;28;20112;-77
2022/01/25 05:05:42;;;;;;;48.78;31.27;;;;;;;2.03;91.53;103216.59;5028479;28;20029;-77
2022/01/25 05:08:27;;;;;;;52.33;33.70;;;;;;;2.02;91.38;103218.38;5030786;28;20037;-77
2022/01/25 05:11:03;;;;;;;44.90;27.85;;;;;;;2.05;91.58;103218.38;5031276;28;20493;-77
2022/01/25 05:16:27;;;;;;;57.40;33.80;;;;;;;2.09;91.45;103214.84;5017005;28;20412;-77
2022/01/25 05:19:01;;;;;;;48.35;31.67;;;;;;;2.07;91.52;103216.59;5033973;28;20060;-77
2022/01/25 05:24:10;;;;;;;45.78;28.50;;;;;;;2.09;91.36;103219.22;5012174;28;20037;-77
2022/01/25 05:26:36;;;;;;;45.28;28.08;;;;;;;2.12;91.73;103213.94;5037570;28;20323;-77
2022/01/25 05:29:01;;;;;;;47.17;30.67;;;;;;;2.12;91.22;103215.72;5027877;28;20570;-77
2022/01/25 05:31:26;;;;;;;53.90;30.50;;;;;;;2.09;91.21;103212.19;5025491;28;20029;-77
2022/01/25 05:33:52;;;;;;;45.15;29.50;;;;;;;2.12;91.59;103213.06;5028116;28;20034;-77
2022/01/25 05:36:17;;;;;;;45.08;28.38;;;;;;;2.12;91.44;103213.06;5028267;28;20025;-77
2022/01/25 05:38:44;;;;;;;47.92;27.98;;;;;;;2.13;91.77;103218.34;5038292;28;20497;-77
2022/01/25 05:41:09;;;;;;;43.15;27.77;;;;;;;2.10;91.38;103216.56;5034904;28;20080;-77
2022/01/25 05:46:47;;;;;;;46.80;29.85;;;;;;;2.09;91.79;103201.56;5023755;28;20043;-77
2022/01/25 05:49:12;;;;;;;47.95;31.92;;;;;;;2.13;91.63;103210.41;5028775;28;20037;-77
2022/01/25 05:51:37;;;;;;;48.30;29.98;;;;;;;2.13;91.55;103210.41;5006098;28;20044;-77
2022/01/25 05:54:02;;;;;;;49.28;31.58;;;;;;;2.12;91.27;103205.09;5024112;28;20037;-77
2022/01/25 05:56:28;;;;;;;52.03;30.00;;;;;;;2.14;91.81;103216.56;5032087;28;20033;-77
2022/01/25 05:58:53;;;;;;;47.08;29.55;;;;;;;2.13;92.11;103202.44;5024325;28;20456;-77
2022/01/25 06:01:18;;;;;;;45.13;29.40;;;;;;;2.15;92.17;103207.75;5024744;28;20049;-77
2022/01/25 06:03:45;;;;;;;47.72;28.83;;;;;;;2.14;91.44;103200.66;5026428;28;20065;-77
2022/01/25 06:06:11;;;;;;;50.70;29.98;;;;;;;2.14;91.42;103198.00;5005822;28;20068;-77
2022/01/25 06:08:36;;;;;;;47.97;30.38;;;;;;;2.15;91.50;103210.41;5028871;28;20509;-77
2022/01/25 06:11:02;;;;;;;47.47;28.40;;;;;;;2.15;91.91;103210.41;5027411;28;20049;-77
2022/01/25 06:13:27;;;;;;;48.03;29.55;;;;;;;2.14;92.02;103209.53;5027335;28;20800;-77
2022/01/25 06:15:52;;;;;;;48.83;30.30;;;;;;;2.15;91.99;103208.63;5028504;28;20041;-77
2022/01/25 06:18:17;;;;;;;46.38;29.05;;;;;;;2.15;91.60;103211.28;5029447;28;20036;-77
2022/01/25 06:20:43;;;;;;;48.85;28.23;;;;;;;2.15;91.66;103203.31;5024542;28;20073;-77
2022/01/25 06:23:08;;;;;;;46.90;27.88;;;;;;;2.16;92.00;103205.09;5032793;28;20452;-77
2022/01/25 06:25:34;;;;;;;44.70;28.42;;;;;;;2.18;92.04;103202.44;5031805;28;20025;-77
2022/01/25 06:28:00;;;;;;;45.83;30.15;;;;;;;2.18;91.88;103207.75;5028762;28;20052;-77
2022/01/25 06:30:25;;;;;;;40.40;26.58;;;;;;;2.16;91.75;103204.22;5027904;28;20022;-77
2022/01/25 06:32:50;;;;;;;46.08;29.92;;;;;;;2.16;91.49;103198.91;5026751;28;20025;-77
2022/01/25 06:35:16;;;;;;;53.42;32.22;;;;;;;2.16;92.04;103202.44;5027282;28;20061;-77
2022/01/25 06:37:42;;;;;;;47.92;30.73;;;;;;;2.18;91.91;103208.66;5029703;28;20116;-77
2022/01/25 06:40:08;;;;;;;46.53;29.83;;;;;;;2.19;91.59;103214.81;5030331;28;20374;-76
2022/01/25 06:42:35;;;;;;;45.35;29.35;;;;;;;2.20;91.82;103213.94;5029254;28;20112;-77
2022/01/25 06:45:04;;;;;;;50.47;31.40;;;;;;;2.19;91.44;103215.69;5028801;28;20845;-76
2022/01/25 06:47:30;;;;;;;46.22;31.05;;;;;;;2.18;91.90;103213.94;5029815;28;20444;-77
2022/01/25 06:49:56;;;;;;;51.67;32.22;;;;;;;2.20;91.68;103211.28;5028075;28;20026;-77
2022/01/25 06:52:21;;;;;;;49.45;31.50;;;;;;;2.21;91.32;103213.03;5025492;28;20116;-77
2022/01/25 06:54:47;;;;;;;49.33;31.70;;;;;;;2.24;92.10;103203.34;5025290;28;20116;-77
2022/01/25 06:57:12;;;;;;;56.33;32.95;;;;;;;2.27;91.41;103207.75;5027567;28;20063;-77
2022/01/25 06:59:37;;;;;;;47.50;31.23;;;;;;;2.25;91.71;103213.03;5029596;28;20087;-77
2022/01/25 07:02:03;;;;;;;48.22;31.70;;;;;;;2.24;91.34;103210.38;5037761;28;20503;-77
2022/01/25 07:04:28;;;;;;;54.80;32.15;;;;;;;2.24;91.30;103223.66;5038098;28;20394;-77
2022/01/25 07:06:54;;;;;;;53.95;31.83;;;;;;;2.26;91.25;103221.91;5025994;28;20026;-77
2022/01/25 07:09:19;;;;;;;53.22;31.27;;;;;;;2.26;91.86;103227.22;5028170;28;20025;-77
2022/01/25 07:11:44;;;;;;;51.63;31.65;;;;;;;2.24;91.33;103231.59;5028051;28;20049;-77
2022/01/25 07:14:10;;;;;;;56.53;35.45;;;;;;;2.24;91.48;103224.56;5025849;28;20037;-77
2022/01/25 07:16:35;;;;;;;52.00;33.75;;;;;;;2.26;91.55;103230.72;5029395;28;20041;-77
2022/01/25 07:19:00;;;;;;;54.45;35.10;;;;;;;2.26;91.87;103229.84;5028611;28;20491;-77
2022/01/25 07:21:26;;;;;;;49.65;32.65;;;;;;;2.27;91.18;103228.97;5028156;28;20022;-77
2022/01/25 07:23:51;;;;;;;53.30;31.20;;;;;;;2.28;91.43;103225.44;5028650;28;20029;-77
2022/01/25 07:26:16;;;;;;;48.65;29.30;;;;;;;2.29;91.84;103224.56;5026493;28;20493;-77
2022/01/25 07:28:43;;;;;;;47.97;33.88;;;;;;;2.27;91.44;103223.69;5029022;28;20038;-77
2022/01/25 07:31:08;;;;;;;51.95;32.88;;;;;;;2.29;91.20;103224.56;5030077;28;20032;-77
2022/01/25 07:33:34;;;;;;;55.33;31.52;;;;;;;2.31;91.11;103232.50;5028552;28;20052;-77
2022/01/25 07:35:59;;;;;;;53.75;33.35;;;;;;;2.31;91.38;103229.84;5032860;28;20148;-77
2022/01/25 07:38:24;;;;;;;48.92;31.92;;;;;;;2.33;91.93;103228.97;5027329;28;20191;-77
2022/01/25 07:40:50;;;;;;;53.95;33.05;;;;;;;2.33;91.77;103228.06;5028333;28;20026;-77
2022/01/25 07:43:15;;;;;;;53.17;30.45;;;;;;;2.33;91.74;103228.97;5022104;28;20086;-77
2022/01/25 07:45:42;;;;;;;54.67;34.67;;;;;;;2.34;90.92;103217.44;5022422;28;20485;-77
2022/01/25 07:48:09;;;;;;;61.38;37.30;;;;;;;2.38;89.68;103229.84;5027544;28;20036;-77
2022/01/25 07:50:36;;;;;;;55.50;35.78;;;;;;;2.44;89.97;103236.91;5027568;28;20025;-77
2022/01/25 07:53:02;;;;;;;57.45;35.83;;;;;;;2.47;90.28;103236.03;5028122;28;20037;-77
2022/01/25 07:55:27;;;;;;;54.38;33.95;;;;;;;2.49;91.29;103228.94;5028416;28;20025;-77
2022/01/25 07:57:53;;;;;;;53.38;33.70;;;;;;;2.50;90.35;103233.38;5026260;28;20493;-77
2022/01/25 08:00:18;;;;;;;55.38;33.08;;;;;;;2.49;90.82;103232.50;5018927;28;20120;-77
2022/01/25 08:02:46;;;;;;;55.80;38.15;;;;;;;2.51;90.68;103229.84;5023816;28;20061;-77
2022/01/25 08:05:16;;;;;;;60.58;39.72;;;;;;;2.52;89.74;103229.84;5026449;28;20061;-77
2022/01/25 08:07:42;;;;;;;62.13;39.85;;;;;;;2.56;87.40;103233.38;5026390;28;20074;-77
2022/01/25 08:10:08;;;;;;;62.65;39.60;;;;;;;2.61;88.00;103234.25;5028589;28;20856;-77
2022/01/25 08:12:33;;;;;;;58.50;39.83;;;;;;;2.64;88.95;103234.25;5028203;28;20089;-77
2022/01/25 08:15:00;;;;;;;57.22;38.10;;;;;;;2.64;88.83;103228.94;5023436;28;20045;-77
2022/01/25 08:17:25;;;;;;;62.95;40.25;;;;;;;2.66;88.47;103227.16;5024574;28;20493;-77
2022/01/25 08:19:50;;;;;;;62.97;42.60;;;;;;;2.67;87.75;103228.94;5025334;28;20035;-77
2022/01/25 08:22:18;;;;;;;62.58;42.65;;;;;;;2.69;86.98;103229.81;5024116;28;20163;-77
2022/01/25 08:24:44;;;;;;;67.32;41.13;;;;;;;2.73;86.08;103239.53;5024826;28;20056;-77
2022/01/25 08:27:09;;;;;;;64.68;42.20;;;;;;;2.75;87.90;103240.44;5033998;28;20036;-77
2022/01/25 08:29:34;;;;;;;64.93;41.40;;;;;;;2.77;87.88;103238.66;5034201;28;20120;-77
2022/01/25 08:31:59;;;;;;;68.07;44.03;;;;;;;2.79;85.91;103246.63;5035587;28;20055;-77
2022/01/25 08:34:25;;;;;;;63.00;44.00;;;;;;;2.82;84.63;103245.72;5032056;28;20531;-77
2022/01/25 08:36:50;;;;;;;66.40;44.35;;;;;;;2.84;84.94;103246.59;5037662;28;20146;-77
2022/01/25 08:39:15;;;;;;;62.55;42.58;;;;;;;2.85;85.04;103243.94;5038952;28;20045;-77
2022/01/25 08:41:40;;;;;;;63.85;42.75;;;;;;;2.85;84.63;103246.59;5023548;28;20032;-77
2022/01/25 08:44:06;;;;;;;62.22;40.15;;;;;;;2.86;85.09;103243.06;5031082;28;20083;-77
2022/01/25 08:46:32;;;;;;;67.35;40.83;;;;;;;2.88;84.97;103243.06;5022868;28;20131;-77
2022/01/25 08:48:58;;;;;;;57.60;42.30;;;;;;;2.87;85.01;103241.28;5054754;28;20040;-77
2022/01/25 08:51:23;;;;;;;72.22;45.47;;;;;;;2.91;85.49;103245.69;5034058;28;20067;-77
2022/01/25 08:53:48;;;;;;;64.38;44.00;;;;;;;2.93;84.46;103244.81;5024857;28;20051;-77
2022/01/25 08:56:14;;;;;;;65.50;44.10;;;;;;;2.95;85.28;103250.13;5024735;28;20044;-77
2022/01/25 08:58:40;;;;;;;66.40;42.92;;;;;;;2.98;84.58;103245.66;5027748;28;20501;-77
2022/01/25 09:01:06;;;;;;;70.35;44.50;;;;;;;3.01;83.92;103258.06;5034497;28;20091;-77
2022/01/25 09:03:31;;;;;;;64.30;44.40;;;;;;;3.03;84.45;103252.75;5034937;28;20488;-77
2022/01/25 09:05:56;;;;;;;72.10;45.00;;;;;;;3.06;83.34;103256.28;5021325;28;20017;-77
2022/01/25 09:08:23;;;;;;;72.88;49.55;;;;;;;3.07;83.60;103262.47;5022136;28;20586;-77
2022/01/25 09:10:52;;;;;;;73.47;47.05;;;;;;;3.08;83.20;103259.81;5024453;28;20021;-77
2022/01/25 09:13:18;;;;;;;78.30;50.20;;;;;;;3.12;82.35;103252.75;5025848;28;20057;-77
2022/01/25 09:15:44;;;;;;;77.07;51.75;;;;;;;3.11;81.83;103257.16;5026361;28;20496;-77
2022/01/25 09:18:10;;;;;;;80.05;52.78;;;;;;;3.12;81.24;103263.38;5025213;28;20034;-77
2022/01/25 09:20:35;;;;;;;83.63;54.85;;;;;;;3.12;81.71;103256.25;5023660;28;20037;-77
2022/01/25 09:23:00;;;;;;;81.80;53.28;;;;;;;3.11;80.15;103257.16;5024132;28;20112;-77
2022/01/25 09:25:26;;;;;;;74.72;50.83;;;;;;;3.14;81.34;103253.59;5025634;28;20064;-77
2022/01/25 09:27:51;;;;;;;80.70;51.45;;;;;;;3.15;81.12;103258.03;5026647;28;20223;-77
2022/01/25 09:30:17;;;;;;;81.82;53.22;;;;;;;3.17;81.87;103260.69;5025041;28;20021;-77
2022/01/25 09:32:42;;;;;;;78.18;51.97;;;;;;;3.16;81.53;103265.09;5034797;28;20063;-77
2022/01/25 09:35:07;;;;;;;90.65;54.75;;;;;;;3.18;81.25;103267.75;5057858;28;20086;-77
2022/01/25 09:37:33;;;;;;;83.35;53.47;;;;;;;3.20;81.19;103266.88;5022320;28;20405;-77
2022/01/25 09:40:00;;;;;;;83.80;54.97;;;;;;;3.21;81.49;103262.44;5030990;28;20574;-77
2022/01/25 09:42:28;;;;;;;79.60;54.50;;;;;;;3.23;82.04;103263.31;5025963;28;20029;-77
2022/01/25 09:44:54;;;;;;;85.65;57.42;;;;;;;3.23;81.85;103260.66;5027555;28;20072;-80
2022/01/25 09:47:20;;;;;;;90.30;54.85;;;;;;;3.26;81.09;103265.97;5028601;28;20039;-77
2022/01/25 09:49:45;;;;;;;88.18;58.33;;;;;;;3.28;80.91;103272.13;5027804;28;20033;-77
2022/01/25 09:52:12;;;;;;;87.97;57.00;;;;;;;3.32;80.80;103271.25;5031334;28;20090;-77
2022/01/25 09:54:38;;;;;;;89.40;57.25;;;;;;;3.31;80.77;103272.16;5042750;28;20072;-77
2022/01/25 09:57:05;;;;;;;86.70;59.28;;;;;;;3.31;80.07;103269.50;5031417;28;20446;-77
2022/01/25 09:59:30;;;;;;;79.32;53.72;;;;;;;3.31;79.72;103275.69;5028059;28;20037;-77
2022/01/25 10:01:56;;;;;;;92.75;57.85;;;;;;;3.36;80.62;103275.66;5032824;28;20052;-77
2022/01/25 10:04:35;;;;;;;83.43;54.75;;;;;;;3.38;79.84;103279.19;5027987;28;20136;-77
2022/01/25 10:07:02;;;;;;;82.32;53.08;;;;;;;3.41;80.01;103275.63;5022936;28;20025;-77
2022/01/25 10:09:29;;;;;;;88.85;56.78;;;;;;;3.45;79.22;103282.72;5026314;28;20833;-77
2022/01/25 10:11:55;;;;;;;88.68;57.35;;;;;;;3.45;79.24;103283.59;5026726;28;20103;-77
2022/01/25 10:14:23;;;;;;;81.68;54.53;;;;;;;3.48;79.46;103280.03;5023883;28;20405;-75
2022/01/25 10:16:55;;;;;;;79.55;53.38;;;;;;;3.49;79.53;103288.00;5026678;28;20017;-74
2022/01/25 10:19:25;;;;;;;82.38;52.00;;;;;;;3.54;79.60;103282.66;5024878;28;20064;-74
2022/01/25 10:21:52;;;;;;;80.15;53.20;;;;;;;3.54;79.47;103281.78;5026335;28;20022;-74
2022/01/25 10:24:24;;;;;;;81.07;52.40;;;;;;;3.57;79.32;103281.78;5026947;28;20049;-74
2022/01/25 10:26:55;;;;;;;80.65;51.75;;;;;;;3.59;79.05;103282.69;5025928;28;20688;-74
2022/01/25 10:29:25;;;;;;;81.22;53.53;;;;;;;3.62;79.40;103285.31;5027200;28;20060;-74
2022/01/25 10:32:13;;;;;;;79.55;51.13;;;;;;;3.64;79.28;103283.53;5026280;28;20029;-74
2022/01/25 10:34:44;;;;;;;80.78;52.03;;;;;;;3.66;78.71;103279.06;5026584;28;20029;-74
2022/01/25 10:37:16;;;;;;;77.22;53.22;;;;;;;3.69;77.93;103281.75;5025553;28;20509;-74
2022/01/25 10:39:44;;;;;;;76.35;52.35;;;;;;;3.69;78.47;103281.75;5026496;28;20465;-74
2022/01/25 10:42:25;;;;;;;74.05;48.22;;;;;;;3.71;78.77;103284.38;5027612;28;20029;-74
2022/01/25 10:44:56;;;;;;;78.57;50.60;;;;;;;3.70;78.47;103275.50;5024520;28;20078;-74
2022/01/25 10:47:45;;;;;;;81.28;52.55;;;;;;;3.74;78.53;103279.03;5026362;28;20033;-74
2022/01/25 10:50:22;;;;;;;74.43;48.10;;;;;;;3.73;78.91;103278.13;5027126;28;20090;-74
2022/01/25 10:53:04;;;;;;;76.30;54.20;;;;;;;3.78;79.68;103278.16;5025987;28;20037;-74
2022/01/25 10:55:40;;;;;;;77.90;53.33;;;;;;;3.76;77.21;103278.13;5026674;28;20429;-74
2022/01/25 10:58:07;;;;;;;76.60;50.47;;;;;;;3.74;77.32;103274.59;5023778;28;20037;-74
2022/01/25 11:00:36;;;;;;;83.75;51.72;;;;;;;3.72;77.38;103270.16;5029915;28;20041;-74
2022/01/25 11:03:03;;;;;;;76.35;51.40;;;;;;;3.75;77.41;103275.47;5033212;28;20043;-73
2022/01/25 11:05:38;;;;;;;79.25;51.55;;;;;;;3.77;77.07;103273.72;5022901;28;20061;-74
2022/01/25 11:08:13;;;;;;;79.25;49.75;;;;;;;3.77;77.19;103279.91;5020874;28;20037;-74
2022/01/25 11:10:51;;;;;;;74.05;50.38;;;;;;;3.78;76.97;103280.81;5020564;28;20079;-74
2022/01/25 11:13:36;;;;;;;76.72;49.10;;;;;;;3.77;76.34;103271.03;5025718;28;20077;-74
2022/01/25 11:16:07;;;;;;;77.95;50.55;;;;;;;3.78;76.15;103278.16;5023164;28;20033;-74
2022/01/25 11:18:33;;;;;;;71.55;48.15;;;;;;;3.80;76.10;103282.53;5035112;28;20342;-74
2022/01/25 11:21:01;;;;;;;77.63;51.40;;;;;;;3.78;76.10;103283.47;5034430;28;20029;-74
2022/01/25 11:23:28;;;;;;;79.20;50.63;;;;;;;3.79;77.37;103288.78;5025431;28;20042;-74
2022/01/25 11:25:54;;;;;;;78.88;51.92;;;;;;;3.81;76.69;103286.09;5024978;28;20060;-74
2022/01/25 11:28:20;;;;;;;78.32;51.13;;;;;;;3.82;77.42;103278.13;5026242;28;20350;-74
2022/01/25 11:30:47;;;;;;;75.50;49.55;;;;;;;3.83;77.43;103278.97;5026216;28;20108;-74
2022/01/25 11:33:14;;;;;;;73.82;50.50;;;;;;;3.83;78.12;103278.97;5029477;28;20029;-74
2022/01/25 11:35:40;;;;;;;75.22;50.55;;;;;;;3.83;77.29;103279.84;5024179;28;20508;-74
2022/01/25 11:38:06;;;;;;;72.30;50.55;;;;;;;3.83;76.73;103279.84;5023781;28;20541;-75
2022/01/25 11:40:36;;;;;;;81.50;53.55;;;;;;;3.83;77.27;103281.66;5028165;28;20025;-74
2022/01/25 11:43:07;;;;;;;75.22;51.95;;;;;;;3.84;76.86;103280.75;5025629;28;20235;-74
2022/01/25 11:45:36;;;;;;;78.53;51.45;;;;;;;3.81;77.33;103281.66;5024481;28;20376;-77
2022/01/25 11:48:03;;;;;;;74.63;50.22;;;;;;;3.80;77.64;103277.22;5024503;28;20032;-75
2022/01/25 11:50:37;;;;;;;80.15;53.13;;;;;;;3.82;77.77;103274.53;5030894;28;20073;-75
2022/01/25 11:53:09;;;;;;;79.82;51.63;;;;;;;3.82;77.02;103275.44;5027208;28;20220;-75
2022/01/25 11:55:48;;;;;;;83.07;50.85;;;;;;;3.85;77.66;103278.09;5033131;28;20060;-74
2022/01/25 11:58:23;;;;;;;76.07;49.30;;;;;;;3.84;77.34;103276.31;5023194;28;20037;-75
2022/01/25 12:00:56;;;;;;;81.20;51.03;;;;;;;3.85;76.75;103275.44;5024401;28;20049;-74
2022/01/25 12:03:37;;;;;;;79.18;50.42;;;;;;;3.86;77.17;103265.66;5031984;28;20033;-75
2022/01/25 12:06:20;;;;;;;79.30;51.08;;;;;;;3.88;76.34;103263.00;5025069;28;20045;-75
2022/01/25 12:11:46;;;;;;;77.75;48.63;;;;;;;3.92;75.50;103262.09;5026340;28;20470;-75
2022/01/25 12:14:27;;;;;;;83.50;54.78;;;;;;;3.93;76.04;103254.09;5026043;28;20512;-75
2022/01/25 12:16:59;;;;;;;76.00;49.25;;;;;;;3.94;75.50;103260.28;5023263;28;20035;-74
2022/01/25 12:19:51;;;;;;;74.68;48.47;;;;;;;3.93;75.96;103261.19;5022916;28;20537;-74
2022/01/25 12:22:26;;;;;;;72.57;49.60;;;;;;;3.92;75.99;103265.63;5021821;28;20033;-74
2022/01/25 12:27:46;;;;;;;75.07;50.83;;;;;;;3.94;75.12;103261.19;5028645;28;20432;-74
2022/01/25 12:30:17;;;;;;;72.97;50.63;;;;;;;3.93;75.97;103259.41;5024629;28;20064;-74
2022/01/25 12:33:01;;;;;;;81.20;49.90;;;;;;;3.95;76.25;103256.75;5029010;28;20033;-74
2022/01/25 12:35:47;;;;;;;75.70;49.08;;;;;;;3.96;75.71;103253.19;5022809;28;20025;-74
2022/01/25 12:38:15;;;;;;;75.13;49.47;;;;;;;3.96;76.04;103253.19;5028747;28;20043;-74
2022/01/25 12:40:55;;;;;;;70.95;50.17;;;;;;;3.98;76.12;103243.41;5022491;28;20030;-74
2022/01/25 12:43:33;;;;;;;74.07;47.38;;;;;;;3.96;75.38;103243.41;5024119;28;20045;-74
2022/01/25 12:46:03;;;;;;;75.35;48.53;;;;;;;3.97;74.50;103247.00;5024225;28;20520;-74
2022/01/25 12:48:32;;;;;;;80.03;50.20;;;;;;;3.97;74.53;103239.00;5022670;28;20029;-74
2022/01/25 12:51:01;;;;;;;85.68;52.83;;;;;;;3.97;75.71;103241.66;5025949;28;20040;-74
2022/01/25 12:53:30;;;;;;;85.87;51.00;;;;;;;3.97;75.59;103239.88;5024483;28;20029;-74
2022/01/25 12:55:59;;;;;;;78.82;51.67;;;;;;;3.97;75.67;103236.34;5023163;28;20021;-74
2022/01/25 12:58:27;;;;;;;76.50;51.13;;;;;;;4.01;76.11;103235.41;5044110;28;20040;-74